Time;durP1;ratioP1;P1;durP2;ratioP2;P2;SDS_P1;SDS_P2;PMS_P1;PMS_P2;Temp;Humidity;BMP_temperature;BMP_pressure;BME280_temperature;BME280_humidity;BME280_pressure;Samples;Min_cycle;Max_cycle;Signal;HPM_P1;HPM_P2
2022/10/08 00:02:00;;;;;;;1.57;1.57;;;20.10;72.00;;;;;;5087288;28;44691;-73
2022/10/08 00:04:29;;;;;;;1.60;1.60;;;20.20;71.60;;;;;;5086799;28;43418;-74
2022/10/08 00:06:57;;;;;;;1.60;1.60;;;20.40;71.20;;;;;;5088687;27;43834;-72
2022/10/08 00:09:25;;;;;;;1.60;1.60;;;20.50;70.90;;;;;;5085047;27;45342;-74
2022/10/08 00:11:54;;;;;;;1.50;1.50;;;20.40;70.60;;;;;;5085613;28;43459;-72
2022/10/08 00:14:22;;;;;;;1.60;1.60;;;20.40;70.70;;;;;;5086517;28;43572;-73
2022/10/08 00:16:50;;;;;;;1.73;1.73;;;20.40;70.80;;;;;;5088220;27;43451;-72
2022/10/08 00:19:18;;;;;;;1.50;1.50;;;20.30;71.10;;;;;;5088056;27;43597;-73
2022/10/08 00:21:49;;;;;;;1.70;1.70;;;20.30;71.70;;;;;;5087232;27;43465;-73
2022/10/08 00:24:17;;;;;;;1.50;1.50;;;20.20;71.50;;;;;;5111925;27;43431;-73
2022/10/08 00:26:45;;;;;;;1.53;1.53;;;20.20;71.40;;;;;;5088510;27;43425;-73
2022/10/08 00:29:16;;;;;;;1.70;1.70;;;20.20;71.50;;;;;;5087221;27;43949;-72
2022/10/08 00:31:45;;;;;;;1.40;1.40;;;20.10;71.60;;;;;;5082225;28;43500;-73
2022/10/08 00:34:14;;;;;;;1.30;1.30;;;20.10;72.10;;;;;;5087819;27;43488;-73
2022/10/08 00:36:42;;;;;;;1.70;1.70;;;20.10;71.90;;;;;;5086492;28;43472;-73
2022/10/08 00:39:12;;;;;;;1.47;1.47;;;20.10;71.70;;;;;;5087583;28;43830;-73
2022/10/08 00:41:40;;;;;;;1.70;1.70;;;20.10;71.70;;;;;;5088000;27;43596;-73
2022/10/08 00:44:46;;;;;;;1.67;1.67;;;20.00;71.80;;;;;;5087792;27;43462;-74
2022/10/08 00:47:18;;;;;;;1.50;1.50;;;20.00;72.40;;;;;;5087711;27;43511;-72
2022/10/08 00:49:47;;;;;;;1.80;1.80;;;20.10;72.00;;;;;;5087372;28;43851;-74
2022/10/08 00:52:15;;;;;;;1.60;1.60;;;20.20;71.60;;;;;;5086923;28;43488;-72
2022/10/08 00:54:43;;;;;;;1.53;1.53;;;20.40;71.10;;;;;;5087969;27;43528;-73
2022/10/08 00:57:11;;;;;;;1.70;1.70;;;20.40;70.80;;;;;;5087803;28;43497;-73
2022/10/08 00:59:39;;;;;;;1.40;1.40;;;20.40;70.70;;;;;;5086554;28;43834;-74
2022/10/08 01:02:08;;;;;;;1.57;1.57;;;20.40;70.70;;;;;;5088156;27;43884;-72
2022/10/08 01:04:38;;;;;;;1.50;1.50;;;20.30;70.80;;;;;;5088190;28;43450;-70
2022/10/08 01:07:10;;;;;;;1.40;1.40;;;20.30;71.10;;;;;;5088984;27;43815;-71
2022/10/08 01:09:39;;;;;;;1.50;1.50;;;20.20;71.60;;;;;;5087084;28;45739;-71
2022/10/08 01:12:10;;;;;;;1.70;1.70;;;20.20;71.60;;;;;;5086920;28;43474;-72
2022/10/08 01:14:41;;;;;;;1.70;1.70;;;20.20;71.50;;;;;;5085093;27;43493;-72
2022/10/08 01:17:11;;;;;;;1.57;1.57;;;20.10;71.50;;;;;;5086914;28;43482;-72
2022/10/08 01:20:13;;;;;;;1.67;1.67;;;20.10;71.70;;;;;;5083806;28;45730;-72
2022/10/08 01:22:54;;;;;;;1.70;1.60;;;20.10;72.10;;;;;;5042286;27;43451;-71
2022/10/08 01:25:36;;;;;;;1.50;1.50;;;20.10;71.80;;;;;;5087230;28;43524;-74
2022/10/08 01:28:16;;;;;;;1.57;1.57;;;20.10;71.70;;;;;;5086899;28;43540;-72
2022/10/08 01:30:47;;;;;;;1.60;1.60;;;20.10;71.80;;;;;;5088408;28;43697;-71
2022/10/08 01:33:16;;;;;;;1.60;1.60;;;20.00;72.10;;;;;;5088438;27;43718;-70
2022/10/08 01:35:46;;;;;;;1.40;1.40;;;20.00;72.30;;;;;;5087917;27;43417;-72
2022/10/08 01:38:16;;;;;;;1.50;1.50;;;20.20;72.10;;;;;;5088159;28;43410;-69
2022/10/08 01:40:44;;;;;;;1.63;1.63;;;20.30;71.50;;;;;;5080424;28;46109;-71
2022/10/08 01:43:14;;;;;;;1.60;1.60;;;20.40;71.00;;;;;;5084320;27;44405;-71
2022/10/08 01:45:43;;;;;;;1.60;1.60;;;20.40;70.70;;;;;;5087713;27;44041;-71
2022/10/08 01:48:13;;;;;;;1.50;1.50;;;20.40;70.60;;;;;;5083326;28;43750;-72
2022/10/08 01:50:46;;;;;;;1.70;1.70;;;20.40;70.70;;;;;;5085158;28;43954;-69
2022/10/08 01:53:15;;;;;;;1.60;1.60;;;20.30;70.90;;;;;;5103359;27;44254;-71
2022/10/08 01:55:45;;;;;;;1.47;1.47;;;20.20;71.20;;;;;;5086173;28;43410;-71
2022/10/08 01:58:16;;;;;;;1.50;1.50;;;20.20;71.70;;;;;;5086958;28;43446;-70
2022/10/08 02:00:44;;;;;;;1.40;1.40;;;20.20;71.50;;;;;;5087203;28;43598;-73
2022/10/08 02:03:12;;;;;;;1.63;1.63;;;20.20;71.50;;;;;;5087367;27;43576;-70
2022/10/08 02:05:43;;;;;;;1.30;1.30;;;20.10;71.40;;;;;;5086861;28;43484;-70
2022/10/08 02:08:11;;;;;;;1.77;1.77;;;20.10;71.70;;;;;;5086480;27;43436;-71
2022/10/08 02:10:39;;;;;;;1.50;1.50;;;20.10;72.10;;;;;;5087373;27;43862;-70
2022/10/08 02:13:07;;;;;;;1.50;1.50;;;20.10;71.90;;;;;;5087489;28;44502;-72
2022/10/08 02:15:41;;;;;;;1.37;1.37;;;20.10;71.70;;;;;;5087334;27;43478;-71
2022/10/08 02:18:10;;;;;;;1.40;1.40;;;20.00;71.70;;;;;;5087595;27;43465;-71
2022/10/08 02:20:40;;;;;;;1.30;1.30;;;20.00;71.90;;;;;;5087570;27;43573;-72
2022/10/08 02:23:09;;;;;;;1.60;1.60;;;20.00;72.30;;;;;;5087176;27;43947;-71
2022/10/08 02:25:38;;;;;;;1.60;1.60;;;20.10;72.00;;;;;;5085935;28;43425;-71
2022/10/08 02:28:08;;;;;;;1.30;1.30;;;20.20;71.60;;;;;;5087771;27;43414;-72
2022/10/08 02:30:40;;;;;;;1.50;1.50;;;20.40;71.10;;;;;;5085211;28;45955;-71
2022/10/08 02:33:10;;;;;;;1.60;1.60;;;20.50;70.80;;;;;;5086933;27;43420;-71
2022/10/08 02:35:40;;;;;;;1.30;1.30;;;20.50;70.70;;;;;;5087147;28;43524;-71
2022/10/08 02:38:10;;;;;;;1.50;1.50;;;20.40;70.60;;;;;;5085505;28;43567;-72
2022/10/08 02:40:38;;;;;;;1.37;1.37;;;20.40;70.80;;;;;;5086180;27;43848;-70
2022/10/08 02:43:08;;;;;;;1.47;1.47;;;20.30;71.00;;;;;;5083087;28;43448;-72
2022/10/08 02:45:40;;;;;;;1.43;1.43;;;20.20;71.60;;;;;;5085185;28;43472;-71
2022/10/08 02:48:11;;;;;;;1.40;1.40;;;20.20;71.60;;;;;;5083649;28;44106;-71
2022/10/08 02:50:39;;;;;;;1.50;1.50;;;20.20;71.40;;;;;;5086313;28;43913;-70
2022/10/08 02:53:07;;;;;;;1.50;1.50;;;20.20;71.50;;;;;;5084701;28;44927;-70
2022/10/08 02:55:38;;;;;;;1.60;1.60;;;20.10;71.50;;;;;;5085263;28;43488;-71
2022/10/08 02:58:08;;;;;;;1.50;1.50;;;20.10;71.90;;;;;;5087215;27;43464;-70
2022/10/08 03:00:40;;;;;;;1.50;1.50;;;20.10;72.10;;;;;;5086371;27;43614;-71
2022/10/08 03:03:10;;;;;;;1.73;1.73;;;20.20;71.80;;;;;;5085279;28;44744;-71
2022/10/08 03:05:39;;;;;;;1.40;1.40;;;20.20;71.50;;;;;;5086552;27;43492;-71
2022/10/08 03:08:07;;;;;;;1.67;1.57;;;20.30;71.30;;;;;;5086990;27;43512;-71
2022/10/08 03:10:36;;;;;;;1.70;1.70;;;20.20;71.40;;;;;;5086858;27;45037;-70
2022/10/08 03:13:04;;;;;;;1.50;1.50;;;20.20;71.60;;;;;;5086888;27;43434;-70
2022/10/08 03:15:33;;;;;;;1.40;1.40;;;20.20;71.40;;;;;;5086141;27;43401;-71
2022/10/08 03:18:03;;;;;;;1.37;1.37;;;20.20;71.30;;;;;;5085747;28;43585;-71
2022/10/08 03:20:31;;;;;;;1.50;1.50;;;20.20;71.50;;;;;;5086147;28;43840;-70
2022/10/08 03:23:00;;;;;;;1.70;1.70;;;20.10;71.70;;;;;;5086831;27;43496;-71
2022/10/08 03:25:28;;;;;;;1.60;1.60;;;20.10;72.00;;;;;;5089788;27;43429;-71
2022/10/08 03:27:56;;;;;;;1.43;1.43;;;20.10;71.70;;;;;;5086414;27;43475;-71
2022/10/08 03:30:24;;;;;;;1.40;1.40;;;20.10;71.70;;;;;;5086997;27;44149;-71
2022/10/08 03:32:52;;;;;;;1.47;1.47;;;20.10;71.70;;;;;;5086340;28;43407;-72
2022/10/08 03:35:21;;;;;;;1.50;1.50;;;20.00;72.00;;;;;;5086378;28;43461;-71
2022/10/08 03:37:49;;;;;;;1.50;1.50;;;20.10;72.30;;;;;;5096876;27;44161;-71
2022/10/08 03:40:17;;;;;;;1.50;1.50;;;20.10;71.90;;;;;;5086352;27;43800;-72
2022/10/08 03:42:45;;;;;;;1.50;1.50;;;20.30;71.60;;;;;;5086343;28;43544;-72
2022/10/08 03:45:13;;;;;;;1.57;1.57;;;20.40;71.00;;;;;;5086510;27;43483;-70
2022/10/08 03:47:41;;;;;;;1.60;1.60;;;20.40;70.80;;;;;;5085617;28;44035;-73
2022/10/08 03:50:09;;;;;;;1.43;1.43;;;20.40;70.70;;;;;;5085965;27;43614;-72
2022/10/08 03:52:39;;;;;;;1.50;1.50;;;20.40;70.80;;;;;;5084294;27;43474;-73
2022/10/08 03:55:08;;;;;;;1.47;1.47;;;20.30;70.90;;;;;;5086463;27;43458;-72
2022/10/08 03:57:35;;;;;;;1.63;1.63;;;20.30;71.30;;;;;;5086609;27;43940;-72
2022/10/08 04:00:04;;;;;;;1.50;1.50;;;20.20;71.70;;;;;;5086301;27;43854;-71
2022/10/08 04:02:32;;;;;;;1.50;1.50;;;20.20;71.60;;;;;;5086216;27;43494;-72
2022/10/08 04:05:00;;;;;;;1.40;1.40;;;20.20;71.50;;;;;;5085292;28;43978;-71
2022/10/08 04:07:28;;;;;;;1.60;1.60;;;20.20;71.70;;;;;;5087259;27;43423;-72
2022/10/08 04:09:57;;;;;;;1.60;1.60;;;20.10;71.70;;;;;;5089185;27;43873;-73
2022/10/08 04:12:25;;;;;;;1.60;1.60;;;20.10;72.10;;;;;;5089378;27;43444;-72
2022/10/08 04:14:53;;;;;;;1.40;1.40;;;20.10;71.90;;;;;;5088111;28;44016;-72
2022/10/08 04:17:21;;;;;;;1.63;1.63;;;20.10;71.80;;;;;;5089591;28;43849;-70
2022/10/08 04:19:49;;;;;;;1.60;1.60;;;20.10;71.90;;;;;;5086942;28;43914;-70
2022/10/08 04:22:16;;;;;;;1.40;1.40;;;20.10;72.00;;;;;;5088226;28;43545;-70
2022/10/08 04:24:44;;;;;;;1.53;1.53;;;20.00;72.30;;;;;;5088122;27;43382;-73
2022/10/08 04:27:14;;;;;;;1.47;1.47;;;20.10;72.20;;;;;;5089694;27;43502;-70
2022/10/08 04:29:41;;;;;;;1.30;1.30;;;20.20;71.60;;;;;;5089459;27;43856;-71
2022/10/08 04:32:09;;;;;;;1.40;1.40;;;20.30;71.50;;;;;;5088953;27;43408;-70
2022/10/08 04:34:37;;;;;;;1.47;1.47;;;20.30;71.20;;;;;;5089324;27;43508;-71
2022/10/08 04:37:05;;;;;;;1.40;1.40;;;20.30;71.50;;;;;;5089478;27;43413;-73
2022/10/08 04:39:33;;;;;;;1.60;1.60;;;20.30;71.60;;;;;;5088609;28;43919;-71
2022/10/08 04:42:01;;;;;;;1.50;1.50;;;20.30;71.40;;;;;;5087161;28;44395;-70
2022/10/08 04:44:30;;;;;;;1.40;1.40;;;20.30;71.30;;;;;;5088881;27;43401;-72
2022/10/08 04:46:58;;;;;;;1.20;1.20;;;20.20;71.30;;;;;;5089652;27;43816;-70
2022/10/08 04:49:27;;;;;;;1.23;1.23;;;20.20;71.60;;;;;;5088769;27;43592;-71
2022/10/08 04:51:55;;;;;;;1.50;1.50;;;20.20;72.10;;;;;;5086932;28;44275;-71
2022/10/08 04:54:23;;;;;;;1.43;1.43;;;20.20;71.80;;;;;;5088702;27;43430;-72
2022/10/08 04:56:51;;;;;;;1.30;1.30;;;20.20;71.70;;;;;;5089334;27;43473;-70
2022/10/08 04:59:19;;;;;;;1.47;1.47;;;20.10;71.70;;;;;;5088630;28;43917;-71
2022/10/08 05:01:48;;;;;;;1.70;1.70;;;20.10;71.80;;;;;;5086677;28;44545;-71
2022/10/08 05:04:16;;;;;;;1.50;1.50;;;20.10;72.30;;;;;;5088774;27;43457;-70
2022/10/08 05:06:44;;;;;;;1.50;1.50;;;20.10;72.10;;;;;;5089529;27;43864;-73
2022/10/08 05:09:12;;;;;;;1.53;1.53;;;20.20;71.70;;;;;;5088522;27;43858;-71
2022/10/08 05:11:41;;;;;;;1.40;1.40;;;20.30;71.20;;;;;;5089151;28;44488;-71
2022/10/08 05:14:09;;;;;;;1.40;1.40;;;20.40;70.80;;;;;;5086570;27;43421;-72
2022/10/08 05:16:37;;;;;;;1.30;1.30;;;20.50;70.80;;;;;;5087622;28;43498;-70
2022/10/08 05:19:06;;;;;;;1.57;1.57;;;20.40;70.50;;;;;;5086993;28;43948;-71
2022/10/08 05:21:34;;;;;;;1.30;1.30;;;20.40;70.80;;;;;;5088107;27;43685;-70
2022/10/08 05:24:03;;;;;;;1.40;1.40;;;20.30;70.90;;;;;;5088039;27;43502;-70
2022/10/08 05:26:32;;;;;;;1.40;1.40;;;20.20;71.50;;;;;;5088988;27;43426;-71
2022/10/08 05:29:20;;;;;;;1.37;1.37;;;20.20;71.60;;;;;;5084908;27;45859;-70
2022/10/08 05:31:48;;;;;;;1.47;1.47;;;20.20;71.30;;;;;;5087812;27;43481;-70
2022/10/08 05:34:17;;;;;;;1.53;1.53;;;20.20;71.50;;;;;;5088256;27;43809;-71
2022/10/08 05:36:45;;;;;;;1.40;1.40;;;20.10;71.50;;;;;;5086621;28;43481;-72
2022/10/08 05:39:13;;;;;;;1.40;1.40;;;20.10;72.00;;;;;;5087507;28;43972;-71
2022/10/08 05:41:44;;;;;;;1.40;1.40;;;20.10;72.00;;;;;;5086755;28;44784;-72
2022/10/08 05:44:11;;;;;;;1.40;1.40;;;20.10;71.70;;;;;;5086120;27;43442;-72
2022/10/08 05:46:39;;;;;;;1.57;1.50;;;20.10;71.70;;;;;;5088806;28;43538;-71
2022/10/08 05:49:09;;;;;;;1.53;1.53;;;20.10;71.70;;;;;;5088183;27;43697;-71
2022/10/08 05:51:38;;;;;;;1.37;1.37;;;20.00;72.10;;;;;;5088744;27;43525;-72
2022/10/08 05:54:06;;;;;;;1.50;1.50;;;20.10;72.30;;;;;;5086947;28;43436;-71
2022/10/08 05:56:34;;;;;;;1.47;1.47;;;20.20;71.90;;;;;;5083137;28;43512;-71
2022/10/08 05:59:01;;;;;;;1.50;1.50;;;20.30;71.40;;;;;;5087944;28;43935;-71
2022/10/08 06:01:30;;;;;;;1.37;1.37;;;20.40;70.90;;;;;;5087410;28;43497;-71
2022/10/08 06:03:59;;;;;;;1.43;1.43;;;20.50;70.80;;;;;;5088098;27;43416;-71
2022/10/08 06:06:35;;;;;;;1.40;1.40;;;20.40;70.70;;;;;;5088564;27;44040;-70
2022/10/08 06:09:04;;;;;;;1.30;1.30;;;20.40;70.70;;;;;;5088048;28;43913;-70
2022/10/08 06:11:33;;;;;;;1.40;1.40;;;20.30;70.80;;;;;;5086646;28;45065;-69
2022/10/08 06:14:01;;;;;;;1.40;1.40;;;20.20;71.30;;;;;;5085803;28;43487;-71
2022/10/08 06:16:30;;;;;;;1.30;1.30;;;20.20;71.60;;;;;;5115606;27;44002;-71
2022/10/08 06:18:58;;;;;;;1.40;1.40;;;20.20;71.40;;;;;;5086037;28;45391;-71
2022/10/08 06:21:26;;;;;;;1.50;1.50;;;20.20;71.50;;;;;;5086170;28;43722;-71
2022/10/08 06:23:54;;;;;;;1.40;1.40;;;20.10;71.40;;;;;;5087991;27;43430;-69
2022/10/08 06:26:26;;;;;;;1.40;1.40;;;20.10;71.60;;;;;;5087216;27;43574;-71
2022/10/08 06:29:01;;;;;;;1.33;1.33;;;20.10;72.10;;;;;;5087922;28;43653;-71
2022/10/08 06:31:29;;;;;;;1.40;1.40;;;20.20;71.80;;;;;;5085317;28;45231;-71
2022/10/08 06:33:57;;;;;;;1.50;1.50;;;20.20;71.40;;;;;;5089289;27;43356;-71
2022/10/08 06:36:26;;;;;;;1.40;1.40;;;20.30;71.30;;;;;;5087581;27;43453;-70
2022/10/08 06:38:54;;;;;;;1.30;1.30;;;20.30;71.10;;;;;;5082458;28;43830;-71
2022/10/08 06:41:24;;;;;;;1.43;1.43;;;20.30;71.50;;;;;;5087248;28;43799;-70
2022/10/08 06:43:52;;;;;;;1.20;1.20;;;20.20;72.00;;;;;;5085640;28;43571;-71
2022/10/08 06:46:20;;;;;;;1.47;1.47;;;20.30;71.30;;;;;;5088087;27;44191;-70
2022/10/08 06:48:48;;;;;;;1.40;1.40;;;20.20;71.10;;;;;;5086292;28;45411;-70
2022/10/08 06:51:17;;;;;;;1.53;1.50;;;20.20;71.20;;;;;;5086901;28;43638;-70
2022/10/08 06:53:46;;;;;;;1.33;1.23;;;20.10;71.70;;;;;;5085429;28;43481;-75
2022/10/08 06:56:16;;;;;;;1.33;1.33;;;20.20;71.90;;;;;;5087474;28;43667;-71
2022/10/08 06:58:46;;;;;;;1.30;1.30;;;20.10;71.50;;;;;;5087147;28;44084;-72
2022/10/08 07:01:17;;;;;;;1.33;1.33;;;20.10;71.50;;;;;;5113805;27;43449;-71
2022/10/08 07:03:48;;;;;;;1.37;1.37;;;20.10;71.50;;;;;;5086877;27;43389;-73
2022/10/08 07:06:16;;;;;;;1.30;1.30;;;20.10;72.00;;;;;;5083450;28;43418;-71
2022/10/08 07:08:44;;;;;;;1.30;1.30;;;20.10;72.20;;;;;;5087290;27;43590;-70
2022/10/08 07:11:12;;;;;;;1.50;1.50;;;20.10;71.80;;;;;;5086641;28;44020;-70
2022/10/08 07:13:40;;;;;;;1.30;1.30;;;20.10;71.70;;;;;;5087326;27;43409;-71
2022/10/08 07:16:10;;;;;;;1.30;1.30;;;20.00;71.70;;;;;;5087732;27;43401;-71
2022/10/08 07:18:42;;;;;;;1.43;1.43;;;20.00;72.00;;;;;;5081640;28;45525;-69
2022/10/08 07:21:11;;;;;;;1.60;1.60;;;20.00;72.30;;;;;;5087250;27;43519;-71
2022/10/08 07:23:39;;;;;;;1.40;1.40;;;20.10;72.00;;;;;;5087562;28;43909;-73
2022/10/08 07:26:08;;;;;;;1.33;1.33;;;20.20;71.50;;;;;;5086023;28;43601;-73
2022/10/08 07:28:38;;;;;;;1.70;1.70;;;20.40;71.00;;;;;;5085475;28;45733;-70
2022/10/08 07:31:07;;;;;;;1.40;1.40;;;20.50;70.60;;;;;;5086853;28;43498;-71
2022/10/08 07:33:36;;;;;;;1.50;1.50;;;20.50;70.50;;;;;;5085324;28;43400;-71
2022/10/08 07:36:09;;;;;;;1.40;1.40;;;20.50;70.50;;;;;;5087371;27;43396;-71
2022/10/08 07:38:37;;;;;;;1.60;1.50;;;20.40;70.60;;;;;;5088847;27;43852;-70
2022/10/08 07:41:05;;;;;;;1.43;1.43;;;20.30;70.90;;;;;;5089565;28;44383;-70
2022/10/08 07:43:33;;;;;;;1.40;1.40;;;20.20;71.40;;;;;;5090657;27;43531;-70
2022/10/08 07:46:01;;;;;;;1.60;1.60;;;20.20;71.30;;;;;;5090490;27;43466;-70
2022/10/08 07:48:29;;;;;;;1.37;1.30;;;20.20;71.30;;;;;;5090767;27;43872;-72
2022/10/08 07:51:08;;;;;;;1.70;1.70;;;20.10;71.30;;;;;;5090407;27;44589;-73
2022/10/08 07:53:36;;;;;;;1.50;1.50;;;20.10;71.50;;;;;;5090239;27;43461;-71
2022/10/08 07:56:04;;;;;;;1.50;1.50;;;20.10;72.00;;;;;;5090579;27;43447;-72
2022/10/08 07:58:32;;;;;;;1.93;1.83;;;20.10;71.70;;;;;;5089936;27;43848;-71
2022/10/08 08:01:01;;;;;;;1.50;1.50;;;20.10;71.60;;;;;;5088152;28;43474;-70
2022/10/08 08:03:29;;;;;;;1.60;1.60;;;20.10;71.70;;;;;;5090881;27;44076;-71
2022/10/08 08:06:00;;;;;;;1.70;1.70;;;20.00;71.70;;;;;;5090660;28;43501;-70
2022/10/08 08:08:30;;;;;;;3.33;1.87;;;20.00;72.10;;;;;;5088871;28;45630;-70
2022/10/08 08:10:58;;;;;;;3.73;2.13;;;20.10;72.00;;;;;;5089183;28;43442;-70
2022/10/08 08:13:26;;;;;;;3.80;2.30;;;20.20;71.60;;;;;;5087762;28;43473;-71
2022/10/08 08:15:57;;;;;;;9.57;2.63;;;20.40;71.20;;;;;;5088873;28;43462;-69
2022/10/08 08:18:28;;;;;;;16.67;4.37;;;20.40;70.80;;;;;;5088638;28;43666;-71
2022/10/08 08:20:59;;;;;;;8.93;3.40;;;20.40;70.10;;;;;;5090006;28;43450;-70
2022/10/08 08:23:32;;;;;;;5.47;3.13;;;20.40;70.10;;;;;;5090467;27;43408;-71
2022/10/08 08:26:01;;;;;;;6.73;3.13;;;20.30;70.10;;;;;;5089492;28;43504;-73
2022/10/08 08:28:29;;;;;;;12.57;4.73;;;20.30;70.30;;;;;;5089341;27;43853;-71
2022/10/08 08:31:07;;;;;;;9.03;4.33;;;20.20;70.00;;;;;;5082654;28;43502;-71
2022/10/08 08:33:35;;;;;;;9.07;4.20;;;20.10;70.10;;;;;;5086294;28;43449;-72
2022/10/08 08:36:03;;;;;;;9.00;4.43;;;20.10;70.30;;;;;;5086931;27;44161;-71
2022/10/08 08:38:33;;;;;;;16.43;4.53;;;20.10;70.30;;;;;;5086392;27;43852;-72
2022/10/08 08:41:07;;;;;;;12.77;4.67;;;20.10;70.40;;;;;;5086254;28;43485;-72
2022/10/08 08:43:40;;;;;;;11.80;4.73;;;20.00;70.10;;;;;;5085567;28;43525;-72
2022/10/08 08:46:09;;;;;;;11.53;4.90;;;20.00;70.20;;;;;;5087598;27;43464;-72
2022/10/08 08:48:37;;;;;;;8.50;4.50;;;20.00;70.30;;;;;;5086230;27;44208;-70
2022/10/08 08:51:05;;;;;;;10.43;4.43;;;20.00;70.40;;;;;;5086111;28;44076;-73
2022/10/08 08:53:34;;;;;;;11.07;4.33;;;20.00;70.40;;;;;;5088068;28;43453;-70
2022/10/08 08:56:04;;;;;;;12.27;5.07;;;20.00;70.50;;;;;;5102035;27;43947;-71
2022/10/08 08:58:36;;;;;;;10.80;4.60;;;20.00;70.30;;;;;;5086725;28;43879;-71
2022/10/08 09:01:11;;;;;;;7.77;4.13;;;20.10;69.90;;;;;;5086830;28;44088;-71
2022/10/08 09:03:41;;;;;;;12.53;4.80;;;20.20;69.60;;;;;;5087891;28;44694;-71
2022/10/08 09:06:11;;;;;;;8.83;4.63;;;20.30;69.30;;;;;;5086987;27;43472;-71
2022/10/08 09:08:43;;;;;;;9.43;4.27;;;20.30;69.20;;;;;;5085524;28;45717;-72
2022/10/08 09:11:13;;;;;;;7.90;4.17;;;20.30;69.50;;;;;;5087279;27;44535;-71
2022/10/08 09:13:44;;;;;;;6.60;3.80;;;20.20;69.20;;;;;;5085134;27;43501;-70
2022/10/08 09:16:12;;;;;;;6.40;3.67;;;20.10;68.60;;;;;;5087080;28;43479;-71
2022/10/08 09:18:40;;;;;;;6.17;3.70;;;20.10;68.70;;;;;;5086935;28;44516;-71
2022/10/08 09:21:08;;;;;;;5.70;4.00;;;20.00;68.90;;;;;;5086455;28;43515;-70
2022/10/08 09:23:36;;;;;;;4.67;3.17;;;20.00;69.30;;;;;;5086869;28;43449;-70
2022/10/08 09:26:12;;;;;;;6.37;3.80;;;20.00;69.50;;;;;;5086722;28;43907;-71
2022/10/08 09:28:41;;;;;;;6.87;3.73;;;20.00;69.70;;;;;;5086372;28;43788;-72
2022/10/08 09:31:21;;;;;;;5.30;3.80;;;20.00;70.00;;;;;;5086201;28;43980;-71
2022/10/08 09:34:07;;;;;;;5.37;3.40;;;20.00;70.00;;;;;;5086134;28;43462;-71
2022/10/08 09:36:36;;;;;;;5.30;3.40;;;20.00;70.10;;;;;;5086207;28;43448;-70
2022/10/08 09:39:05;;;;;;;7.67;3.50;;;20.00;70.10;;;;;;5086936;27;44023;-70
2022/10/08 09:41:35;;;;;;;4.70;3.30;;;20.00;70.20;;;;;;5086691;27;44680;-70
2022/10/08 09:44:17;;;;;;;5.03;3.43;;;20.00;70.40;;;;;;5086163;28;44149;-71
2022/10/08 09:46:45;;;;;;;6.00;3.10;;;20.00;70.10;;;;;;5084529;27;43452;-70
2022/10/08 09:49:30;;;;;;;3.70;3.40;;;20.10;69.90;;;;;;5086175;28;43879;-69
2022/10/08 09:52:00;;;;;;;4.37;3.10;;;20.20;69.60;;;;;;5086119;28;43529;-71
2022/10/08 09:54:29;;;;;;;3.67;2.83;;;20.30;69.30;;;;;;5086783;28;44077;-71
2022/10/08 09:56:59;;;;;;;3.57;2.97;;;20.30;69.60;;;;;;5086349;27;43596;-72
2022/10/08 09:59:28;;;;;;;3.30;3.00;;;20.20;69.60;;;;;;5084650;28;44337;-71
2022/10/08 10:01:56;;;;;;;3.83;3.50;;;20.20;69.80;;;;;;5085835;28;44370;-71
2022/10/08 10:04:31;;;;;;;5.87;3.60;;;20.20;70.00;;;;;;5086222;28;43491;-70
2022/10/08 10:06:58;;;;;;;4.83;3.40;;;20.10;70.10;;;;;;5087052;28;43486;-70
2022/10/08 10:09:38;;;;;;;4.40;2.90;;;20.10;70.10;;;;;;5111553;27;45662;-71
2022/10/08 10:12:11;;;;;;;3.10;2.90;;;20.10;70.10;;;;;;5084555;28;43489;-72
2022/10/08 10:14:42;;;;;;;2.83;2.63;;;20.10;70.10;;;;;;5085762;28;43863;-71
2022/10/08 10:17:13;;;;;;;3.37;3.07;;;20.10;70.10;;;;;;5086184;28;43430;-71
2022/10/08 10:19:44;;;;;;;4.67;2.67;;;20.00;70.30;;;;;;5086336;28;43853;-71
2022/10/08 10:22:13;;;;;;;2.80;2.60;;;20.10;70.20;;;;;;5087238;28;43431;-71
2022/10/08 10:24:47;;;;;;;2.77;2.57;;;20.00;70.20;;;;;;5086353;28;43920;-72
2022/10/08 10:27:18;;;;;;;2.80;2.63;;;20.10;70.30;;;;;;5088565;28;43466;-73
2022/10/08 10:29:51;;;;;;;6.63;2.67;;;20.00;70.20;;;;;;5086087;27;44356;-73
2022/10/08 10:32:20;;;;;;;2.47;2.27;;;20.00;70.60;;;;;;5087181;28;43500;-71
2022/10/08 10:34:57;;;;;;;6.20;3.00;;;20.10;70.60;;;;;;5086799;28;43490;-70
2022/10/08 10:37:30;;;;;;;6.10;2.83;;;20.10;70.30;;;;;;5088379;28;43778;-72
2022/10/08 10:40:14;;;;;;;4.97;2.70;;;20.20;69.80;;;;;;5087087;27;43809;-70
2022/10/08 10:42:47;;;;;;;3.27;2.97;;;20.30;69.50;;;;;;5085866;28;44091;-70
2022/10/08 10:45:16;;;;;;;6.43;3.33;;;20.30;69.40;;;;;;5086439;28;43435;-72
2022/10/08 10:47:44;;;;;;;2.90;2.70;;;20.30;69.40;;;;;;5112441;27;44111;-74
2022/10/08 10:50:12;;;;;;;4.47;3.83;;;20.30;69.40;;;;;;5087270;28;43780;-71
2022/10/08 10:52:47;;;;;;;11.07;3.83;;;20.20;69.00;;;;;;5087884;28;43557;-70
2022/10/08 10:55:22;;;;;;;4.37;3.20;;;20.20;69.10;;;;;;5086457;28;43529;-72
2022/10/08 10:58:08;;;;;;;3.40;3.10;;;20.20;69.20;;;;;;5088208;28;43473;-73
2022/10/08 11:00:41;;;;;;;4.07;3.30;;;20.10;69.30;;;;;;5086981;28;43679;-70
2022/10/08 11:03:12;;;;;;;3.63;2.70;;;20.10;69.50;;;;;;5085895;27;44804;-70
2022/10/08 11:05:40;;;;;;;3.60;3.30;;;20.10;69.50;;;;;;5088067;27;43462;-70
2022/10/08 11:08:24;;;;;;;4.23;3.13;;;20.10;69.70;;;;;;5088191;28;44015;-71
2022/10/08 11:10:57;;;;;;;3.13;2.90;;;20.10;69.70;;;;;;5084872;27;45062;-71
2022/10/08 11:13:44;;;;;;;6.27;3.23;;;20.10;69.70;;;;;;5085572;28;44696;-69
2022/10/08 11:16:18;;;;;;;2.73;2.53;;;20.00;69.60;;;;;;5090811;28;43817;-71
2022/10/08 11:18:49;;;;;;;6.73;3.57;;;20.00;69.80;;;;;;5090833;28;43423;-72
2022/10/08 11:21:25;;;;;;;12.53;4.97;;;20.00;69.70;;;;;;5087781;28;44058;-72
2022/10/08 11:24:04;;;;;;;6.53;4.00;;;20.10;68.40;;;;;;5089914;28;43444;-72
2022/10/08 11:26:35;;;;;;;7.10;3.73;;;20.20;68.00;;;;;;5086880;28;43514;-71
2022/10/08 11:29:08;;;;;;;7.47;4.10;;;20.20;68.50;;;;;;5088172;28;43416;-72
2022/10/08 11:31:40;;;;;;;6.43;3.37;;;20.20;68.90;;;;;;5085864;28;44506;-71
2022/10/08 11:34:23;;;;;;;8.20;3.93;;;20.20;68.70;;;;;;5086611;27;44106;-72
2022/10/08 11:36:59;;;;;;;10.00;3.80;;;20.20;67.70;;;;;;5085672;28;43540;-71
2022/10/08 11:39:30;;;;;;;8.37;3.40;;;20.20;68.40;;;;;;5102888;27;43612;-72
2022/10/08 11:42:01;;;;;;;5.83;4.17;;;20.20;68.50;;;;;;5087493;27;46074;-70
2022/10/08 11:44:30;;;;;;;10.20;4.80;;;20.10;68.10;;;;;;5088454;27;43479;-70
2022/10/08 11:47:32;;;;;;;9.73;4.80;;;20.10;67.50;;;;;;5089206;28;43409;-74
2022/10/08 11:49:59;;;;;;;5.30;3.93;;;20.10;67.70;;;;;;5088010;28;44067;-72
2022/10/08 11:52:29;;;;;;;6.43;4.37;;;20.20;68.30;;;;;;5089310;27;44073;-72
2022/10/08 11:54:57;;;;;;;6.50;4.73;;;20.20;68.10;;;;;;5086937;28;44380;-73
2022/10/08 11:57:32;;;;;;;8.93;6.00;;;20.20;68.70;;;;;;5088830;28;43530;-70
2022/10/08 12:00:32;;;;;;;11.83;7.37;;;20.20;67.20;;;;;;5089431;28;43362;-72
2022/10/08 12:03:00;;;;;;;8.97;6.03;;;20.20;64.40;;;;;;5087080;28;43933;-72
2022/10/08 12:05:39;;;;;;;6.33;5.00;;;20.30;63.30;;;;;;5088855;27;43547;-71
2022/10/08 12:08:07;;;;;;;7.50;5.07;;;20.50;62.90;;;;;;5088276;28;43453;-73
2022/10/08 12:10:35;;;;;;;7.40;5.07;;;20.60;62.70;;;;;;5088247;28;45365;-73
2022/10/08 12:13:25;;;;;;;9.00;5.03;;;20.60;64.30;;;;;;5088196;28;45662;-71
2022/10/08 12:16:03;;;;;;;7.30;4.83;;;20.60;64.90;;;;;;5086370;28;44061;-72
2022/10/08 12:18:49;;;;;;;6.87;4.60;;;20.50;65.50;;;;;;5082872;28;43481;-72
2022/10/08 12:21:50;;;;;;;8.33;3.80;;;20.50;65.40;;;;;;5087288;28;43514;-71
2022/10/08 12:24:55;;;;;;;4.70;3.87;;;20.40;63.60;;;;;;5085280;27;43868;-72
2022/10/08 12:27:24;;;;;;;4.50;3.87;;;20.40;64.60;;;;;;5085998;28;43940;-70
2022/10/08 12:29:56;;;;;;;5.60;4.50;;;20.40;65.00;;;;;;5086201;28;43538;-71
2022/10/08 12:32:25;;;;;;;7.63;4.93;;;20.30;65.40;;;;;;5087958;27;43470;-70
2022/10/08 12:34:54;;;;;;;11.57;5.77;;;20.30;65.60;;;;;;5086698;28;43848;-71
2022/10/08 12:37:36;;;;;;;13.60;6.97;;;20.30;63.30;;;;;;5085233;28;43490;-73
2022/10/08 12:40:09;;;;;;;8.43;4.63;;;20.30;65.00;;;;;;5084395;28;43460;-71
2022/10/08 12:42:37;;;;;;;8.73;5.43;;;20.20;65.20;;;;;;5085358;28;43591;-71
2022/10/08 12:45:08;;;;;;;8.47;5.47;;;20.20;65.40;;;;;;5086063;28;43932;-73
2022/10/08 12:47:43;;;;;;;8.27;5.63;;;20.20;65.70;;;;;;5085273;28;43742;-73
2022/10/08 12:50:30;;;;;;;13.63;5.17;;;20.20;63.60;;;;;;5085621;28;43455;-72
2022/10/08 12:52:59;;;;;;;10.63;5.43;;;20.20;63.00;;;;;;5084232;27;43489;-71
2022/10/08 12:55:27;;;;;;;9.47;5.17;;;20.20;63.80;;;;;;5083090;28;43827;-71
2022/10/08 12:57:55;;;;;;;7.03;4.97;;;20.30;64.10;;;;;;5115215;27;44674;-72
2022/10/08 13:00:24;;;;;;;10.33;5.53;;;20.40;64.30;;;;;;5083057;27;43513;-73
2022/10/08 13:03:00;;;;;;;9.97;4.97;;;20.50;64.70;;;;;;5083648;27;43517;-72
2022/10/08 13:05:32;;;;;;;7.20;4.57;;;20.50;65.00;;;;;;5081366;28;45954;-71